createdAt,value
2023-05-23T00:01:25.719Z,13.98
2023-05-23T00:03:56.545Z,13.96
2023-05-23T00:06:32.159Z,13.95
2023-05-23T00:09:03.129Z,13.91
2023-05-23T00:11:31.264Z,13.89
2023-05-23T00:14:03.614Z,13.89
2023-05-23T00:16:34.295Z,13.88
2023-05-23T00:19:05.538Z,13.84
2023-05-23T00:21:34.074Z,13.80
2023-05-23T00:24:04.986Z,13.78
2023-05-23T00:26:33.503Z,13.76
2023-05-23T00:29:04.945Z,13.76
2023-05-23T00:31:33.246Z,13.74
2023-05-23T00:34:01.500Z,13.73
2023-05-23T00:36:29.673Z,13.72
2023-05-23T00:38:57.995Z,13.71
2023-05-23T00:41:29.209Z,13.69
2023-05-23T00:44:00.056Z,13.68
2023-05-23T00:46:29.990Z,13.68
2023-05-23T00:48:58.554Z,13.67
2023-05-23T00:51:28.202Z,13.62
2023-05-23T00:53:56.664Z,13.58
2023-05-23T00:56:26.987Z,13.55
2023-05-23T00:58:55.436Z,13.52
2023-05-23T01:01:24.546Z,13.48
2023-05-23T01:04:04.682Z,13.44
2023-05-23T01:06:36.460Z,13.40
2023-05-23T01:09:04.908Z,13.37
2023-05-23T01:11:42.222Z,13.33
2023-05-23T01:14:22.293Z,13.29
2023-05-23T01:17:03.835Z,13.25
2023-05-23T01:19:47.347Z,13.21
2023-05-23T01:22:49.486Z,13.16
2023-05-23T01:25:36.391Z,13.11
2023-05-23T01:28:10.050Z,13.06
2023-05-23T01:30:41.988Z,13.03
2023-05-23T01:33:13.487Z,12.98
2023-05-23T01:35:43.942Z,12.93
2023-05-23T01:38:12.452Z,12.92
2023-05-23T01:40:41.898Z,12.93
2023-05-23T01:43:14.926Z,12.94
2023-05-23T01:45:44.126Z,12.94
2023-05-23T01:48:14.724Z,12.93
2023-05-23T01:50:45.640Z,12.94
2023-05-23T01:53:19.851Z,12.95
2023-05-23T01:55:48.910Z,12.94
2023-05-23T01:58:22.036Z,12.94
2023-05-23T02:00:50.537Z,12.94
2023-05-23T02:03:20.169Z,12.91
2023-05-23T02:05:49.790Z,12.89
2023-05-23T02:08:22.517Z,12.88
2023-05-23T02:10:51.911Z,12.87
2023-05-23T02:13:21.832Z,12.87
2023-05-23T02:15:50.103Z,12.87
2023-05-23T02:18:18.467Z,12.86
2023-05-23T02:20:47.061Z,12.86
2023-05-23T02:23:15.313Z,12.86
2023-05-23T02:25:44.874Z,12.86
2023-05-23T02:28:15.864Z,12.84
2023-05-23T02:30:43.856Z,12.83
2023-05-23T02:33:12.402Z,12.80
2023-05-23T02:35:41.036Z,12.77
2023-05-23T02:38:11.575Z,12.75
2023-05-23T02:40:42.203Z,12.73
2023-05-23T02:43:12.969Z,12.71
2023-05-23T02:45:41.400Z,12.67
2023-05-23T02:48:17.689Z,12.66
2023-05-23T02:50:49.081Z,12.67
2023-05-23T02:53:24.435Z,12.67
2023-05-23T02:55:52.771Z,12.67
2023-05-23T02:58:21.192Z,12.64
2023-05-23T03:00:49.440Z,12.62
2023-05-23T03:03:18.684Z,12.61
2023-05-23T03:05:47.038Z,12.60
2023-05-23T03:08:15.358Z,12.57
2023-05-23T03:10:43.547Z,12.56
2023-05-23T03:13:12.105Z,12.60
2023-05-23T03:15:41.148Z,12.66
2023-05-23T03:18:09.396Z,12.72
2023-05-23T03:20:37.784Z,12.79
2023-05-23T03:23:06.038Z,12.88
2023-05-23T03:25:35.029Z,12.98
2023-05-23T03:28:03.161Z,13.09
2023-05-23T03:30:31.386Z,13.24
2023-05-23T03:32:59.498Z,13.39
2023-05-23T03:35:27.747Z,13.59
2023-05-23T03:37:56.433Z,14.00
2023-05-23T03:40:24.757Z,14.29
2023-05-23T03:43:04.816Z,14.42
2023-05-23T03:45:34.398Z,14.57
2023-05-23T03:48:03.965Z,14.67
2023-05-23T03:50:32.283Z,14.75
2023-05-23T03:53:00.653Z,14.86
2023-05-23T03:55:31.963Z,15.07
2023-05-23T03:58:00.746Z,15.29
2023-05-23T04:00:28.916Z,15.51
2023-05-23T04:02:57.487Z,15.62
2023-05-23T04:05:26.385Z,15.53
2023-05-23T04:07:54.923Z,15.46
2023-05-23T04:10:23.238Z,15.49
2023-05-23T04:13:09.951Z,15.53
2023-05-23T04:15:40.071Z,15.62
2023-05-23T04:18:11.613Z,15.74
2023-05-23T04:20:39.751Z,15.87
2023-05-23T04:23:07.796Z,15.97
2023-05-23T04:25:39.752Z,16.07
2023-05-23T04:28:20.797Z,16.22
2023-05-23T04:30:52.398Z,16.38
2023-05-23T04:33:24.934Z,16.56
2023-05-23T04:35:53.447Z,16.72
2023-05-23T04:38:23.107Z,16.80
2023-05-23T04:40:52.830Z,16.95
2023-05-23T04:43:42.631Z,17.21
2023-05-23T04:46:45.655Z,17.53
2023-05-23T04:49:23.921Z,17.80
2023-05-23T04:51:52.648Z,17.99
2023-05-23T04:54:26.826Z,18.22
2023-05-23T04:56:58.532Z,18.59
2023-05-23T04:59:28.538Z,19.07
2023-05-23T05:01:57.263Z,19.41
2023-05-23T05:04:28.216Z,19.72
2023-05-23T05:07:29.553Z,20.05
2023-05-23T05:10:06.246Z,20.40
2023-05-23T05:12:35.673Z,20.79
2023-05-23T05:15:14.255Z,21.21
2023-05-23T05:17:55.049Z,21.63
2023-05-23T05:20:34.710Z,22.16
2023-05-23T05:23:03.765Z,22.63
2023-05-23T05:25:36.466Z,23.09
2023-05-23T05:28:06.583Z,23.37
2023-05-23T05:30:46.461Z,23.68
2023-05-23T05:33:15.208Z,23.91
2023-05-23T05:35:44.121Z,24.07
2023-05-23T05:38:15.783Z,24.26
2023-05-23T05:40:47.361Z,24.46
2023-05-23T05:43:16.328Z,24.64
2023-05-23T05:46:03.493Z,24.89
2023-05-23T05:48:36.279Z,25.22
2023-05-23T05:51:10.641Z,25.51
2023-05-23T05:54:15.454Z,25.73
2023-05-23T05:56:47.818Z,25.97
2023-05-23T05:59:32.326Z,26.10
2023-05-23T06:02:08.381Z,26.24
2023-05-23T06:04:37.276Z,26.32
2023-05-23T06:07:08.004Z,26.42
2023-05-23T06:09:54.671Z,26.44
2023-05-23T06:12:27.721Z,26.31
2023-05-23T06:14:56.226Z,26.22
2023-05-23T06:17:28.753Z,25.99
2023-05-23T06:19:57.124Z,25.71
2023-05-23T06:22:28.262Z,25.35
2023-05-23T06:24:56.779Z,24.96
2023-05-23T06:27:29.344Z,24.70
2023-05-23T06:29:57.794Z,24.46
2023-05-23T06:32:26.245Z,24.20
2023-05-23T06:34:59.602Z,23.84
2023-05-23T06:37:27.745Z,23.61
2023-05-23T06:39:57.525Z,23.47
2023-05-23T06:42:27.337Z,23.33
2023-05-23T06:45:08.010Z,23.20
2023-05-23T06:47:37.699Z,23.09
2023-05-23T06:50:06.763Z,23.01
2023-05-23T06:52:37.186Z,22.92
2023-05-23T06:55:06.765Z,22.85
2023-05-23T06:57:37.222Z,22.82
2023-05-23T07:00:06.297Z,22.83
2023-05-23T07:02:40.283Z,22.86
2023-05-23T07:05:13.187Z,22.83
2023-05-23T07:07:49.484Z,22.80
2023-05-23T07:10:19.940Z,22.84
2023-05-23T07:12:48.548Z,22.84
2023-05-23T07:15:17.196Z,22.86
2023-05-23T07:17:55.877Z,22.92
2023-05-23T07:20:26.208Z,22.97
2023-05-23T07:23:01.546Z,22.98
2023-05-23T07:25:30.615Z,23.00
2023-05-23T07:28:01.390Z,23.06
2023-05-23T07:30:34.366Z,23.11
2023-05-23T07:33:02.733Z,23.10
2023-05-23T07:35:31.171Z,23.14
2023-05-23T07:38:10.315Z,23.17
2023-05-23T07:40:40.563Z,23.17
2023-05-23T07:43:17.528Z,23.16
2023-05-23T07:45:45.789Z,23.16
2023-05-23T07:48:14.382Z,23.25
2023-05-23T07:50:43.713Z,23.30
2023-05-23T07:53:14.911Z,23.31
2023-05-23T07:55:43.332Z,23.30
2023-05-23T07:58:12.024Z,23.30
2023-05-23T08:00:41.963Z,23.33
2023-05-23T08:03:13.624Z,23.40
2023-05-23T08:05:50.471Z,23.48
2023-05-23T08:08:24.295Z,23.54
2023-05-23T08:10:52.544Z,23.58
2023-05-23T08:13:37.115Z,23.62
2023-05-23T08:16:28.252Z,23.68
2023-05-23T08:18:57.540Z,23.69
2023-05-23T08:21:27.428Z,23.74
2023-05-23T08:23:55.885Z,23.82
2023-05-23T08:26:26.595Z,23.88
2023-05-23T08:29:03.756Z,23.93
2023-05-23T08:31:37.257Z,23.96
2023-05-23T08:34:07.753Z,24.01
2023-05-23T08:36:40.243Z,24.07
2023-05-23T08:39:20.748Z,24.11
2023-05-23T08:42:17.035Z,24.14
2023-05-23T08:44:45.568Z,24.20
2023-05-23T08:47:19.959Z,24.25
2023-05-23T08:50:09.177Z,24.34
2023-05-23T08:52:45.960Z,24.44
2023-05-23T08:55:17.774Z,24.48
2023-05-23T08:57:57.682Z,24.53
2023-05-23T09:00:36.542Z,24.60
2023-05-23T09:03:07.333Z,24.65
2023-05-23T09:06:02.715Z,24.71
2023-05-23T09:08:37.179Z,24.78
2023-05-23T09:11:07.112Z,24.87
2023-05-23T09:13:37.733Z,24.91
2023-05-23T09:16:15.397Z,24.90
2023-05-23T09:19:00.779Z,24.87
2023-05-23T09:21:35.974Z,24.87
2023-05-23T09:24:19.373Z,24.92
2023-05-23T09:26:51.155Z,24.95
2023-05-23T09:29:21.651Z,25.01
2023-05-23T09:31:52.361Z,25.08
2023-05-23T09:34:21.955Z,25.13
2023-05-23T09:36:55.837Z,25.19
2023-05-23T09:39:26.485Z,25.21
2023-05-23T09:41:54.686Z,25.24
2023-05-23T09:44:33.404Z,25.29
2023-05-23T09:47:07.472Z,25.28
2023-05-23T09:49:37.718Z,25.23
2023-05-23T09:52:06.017Z,25.22
2023-05-23T09:54:37.637Z,25.30
2023-05-23T09:57:11.200Z,25.41
2023-05-23T09:59:41.556Z,25.48
2023-05-23T10:02:12.421Z,25.53
2023-05-23T10:04:48.687Z,25.57
2023-05-23T10:07:22.479Z,25.50
2023-05-23T10:10:03.496Z,25.53
2023-05-23T10:12:50.117Z,25.64
2023-05-23T10:15:49.661Z,25.69
2023-05-23T10:18:26.370Z,25.66
2023-05-23T10:21:24.655Z,25.68
2023-05-23T10:23:57.299Z,25.40
2023-05-23T10:26:28.699Z,25.36
2023-05-23T10:28:58.319Z,25.55
2023-05-23T10:31:30.455Z,25.71
2023-05-23T10:34:19.540Z,25.79
2023-05-23T10:37:07.937Z,25.94
2023-05-23T10:39:55.081Z,25.82
2023-05-23T10:42:53.749Z,25.69
2023-05-23T10:45:24.468Z,25.48
2023-05-23T10:47:53.806Z,25.56
2023-05-23T10:50:41.895Z,25.67
2023-05-23T10:55:49.313Z,25.99
2023-05-23T10:58:23.086Z,26.10
2023-05-23T11:00:56.185Z,26.14
2023-05-23T11:03:32.027Z,25.96
2023-05-23T11:06:01.153Z,25.85
2023-05-23T11:08:47.160Z,25.94
2023-05-23T11:11:17.381Z,26.07
2023-05-23T11:14:00.046Z,26.21
2023-05-23T11:16:30.539Z,26.23
2023-05-23T11:19:22.102Z,26.26
2023-05-23T11:21:53.909Z,26.34
2023-05-23T11:24:22.430Z,26.46
2023-05-23T11:27:04.220Z,26.59
2023-05-23T11:29:35.532Z,26.74
2023-05-23T11:32:16.850Z,26.81
2023-05-23T11:34:45.832Z,26.77
2023-05-23T11:37:14.297Z,26.75
2023-05-23T11:39:42.545Z,26.88
2023-05-23T11:42:10.614Z,26.97
2023-05-23T11:44:38.736Z,27.08
2023-05-23T11:47:09.041Z,27.16
2023-05-23T11:49:40.377Z,27.12
2023-05-23T11:52:31.925Z,26.94
2023-05-23T11:55:16.419Z,26.53
2023-05-23T11:57:46.352Z,26.28
2023-05-23T12:00:15.318Z,26.28
2023-05-23T12:02:47.912Z,26.45
2023-05-23T12:05:16.728Z,26.64
2023-05-23T12:07:50.766Z,26.88
2023-05-23T12:10:22.020Z,27.08
2023-05-23T12:12:51.932Z,27.15
2023-05-23T12:19:18.043Z,27.17
2023-05-23T12:22:05.784Z,27.02
2023-05-23T12:24:55.086Z,27.13
2023-05-23T12:27:39.771Z,27.37
2023-05-23T12:30:18.329Z,27.60
2023-05-23T12:32:47.590Z,27.81
2023-05-23T12:35:26.005Z,28.05
2023-05-23T12:37:56.739Z,28.30
2023-05-23T12:40:25.014Z,28.50
2023-05-23T12:42:56.830Z,28.63
2023-05-23T12:45:36.883Z,28.71
2023-05-23T12:48:07.696Z,28.75
2023-05-23T12:51:03.302Z,28.80
2023-05-23T12:53:36.577Z,28.80
2023-05-23T12:56:05.620Z,28.86
2023-05-23T12:58:35.278Z,29.00
2023-05-23T13:01:03.730Z,29.17
2023-05-23T13:03:32.352Z,29.34
2023-05-23T13:06:00.741Z,29.53
2023-05-23T13:08:29.685Z,29.70
2023-05-23T13:10:57.989Z,29.90
2023-05-23T13:13:26.842Z,30.03
2023-05-23T13:16:04.590Z,30.13
2023-05-23T13:18:32.765Z,30.06
2023-05-23T13:21:01.504Z,29.86
2023-05-23T13:23:30.976Z,29.56
2023-05-23T13:25:59.166Z,29.19
2023-05-23T13:28:27.385Z,28.94
2023-05-23T13:30:55.607Z,28.74
2023-05-23T13:33:23.873Z,28.78
2023-05-23T13:35:52.602Z,28.94
2023-05-23T13:38:21.116Z,28.92
2023-05-23T13:40:52.665Z,28.82
2023-05-23T13:43:24.014Z,28.68
2023-05-23T13:45:53.680Z,28.57
2023-05-23T13:48:21.816Z,28.33
2023-05-23T13:50:50.101Z,28.15
2023-05-23T13:53:18.222Z,28.04
2023-05-23T13:55:46.708Z,27.76
2023-05-23T13:58:20.941Z,27.44
2023-05-23T14:00:51.274Z,27.11
2023-05-23T14:03:25.622Z,26.92
2023-05-23T14:05:54.863Z,26.73
2023-05-23T14:08:25.967Z,26.01
2023-05-23T14:10:54.046Z,25.15
2023-05-23T14:13:23.249Z,24.74
2023-05-23T14:15:52.068Z,24.34
2023-05-23T14:18:27.419Z,23.71
2023-05-23T14:20:55.551Z,22.97
2023-05-23T14:23:26.286Z,22.23
2023-05-23T14:26:00.768Z,21.86
2023-05-23T14:28:29.298Z,21.67
2023-05-23T14:30:57.583Z,21.53
2023-05-23T14:33:26.811Z,21.48
2023-05-23T14:35:57.178Z,21.50
2023-05-23T14:38:26.078Z,21.63
2023-05-23T14:40:54.938Z,21.82
2023-05-23T14:43:27.154Z,22.05
2023-05-23T14:45:55.561Z,22.27
2023-05-23T14:48:23.805Z,22.50
2023-05-23T14:51:02.534Z,22.71
2023-05-23T14:53:36.676Z,22.92
2023-05-23T14:56:04.692Z,23.09
2023-05-23T14:58:33.776Z,23.23
2023-05-23T15:01:02.580Z,23.33
2023-05-23T15:03:30.656Z,23.44
2023-05-23T15:06:00.221Z,23.51
2023-05-23T15:08:30.600Z,23.56
2023-05-23T15:10:59.132Z,23.62
2023-05-23T15:13:33.526Z,23.65
2023-05-23T15:16:04.838Z,23.67
2023-05-23T15:18:41.554Z,23.73
2023-05-23T15:21:10.886Z,23.78
2023-05-23T15:23:39.168Z,23.86
2023-05-23T15:26:13.440Z,23.99
2023-05-23T15:28:41.766Z,24.15
2023-05-23T15:31:09.966Z,24.32
2023-05-23T15:33:41.055Z,24.51
2023-05-23T15:36:17.695Z,24.68
2023-05-23T15:38:47.367Z,24.79
2023-05-23T15:41:33.140Z,24.87
2023-05-23T15:44:01.416Z,24.94
2023-05-23T15:46:32.605Z,25.06
2023-05-23T15:49:10.280Z,25.16
2023-05-23T15:51:47.875Z,25.22
2023-05-23T15:54:22.771Z,25.27
2023-05-23T15:56:56.617Z,25.30
2023-05-23T15:59:24.943Z,25.35
2023-05-23T16:02:25.166Z,25.41
2023-05-23T16:05:23.369Z,25.41
2023-05-23T16:07:56.243Z,25.36
2023-05-23T16:10:28.700Z,25.33
2023-05-23T16:13:10.104Z,25.33
2023-05-23T16:16:22.118Z,25.30
2023-05-23T16:18:50.734Z,25.26
2023-05-23T16:21:26.914Z,25.22
2023-05-23T16:24:11.107Z,25.19
2023-05-23T16:27:09.497Z,25.22
2023-05-23T16:29:46.463Z,25.23
2023-05-23T16:32:16.364Z,25.24
2023-05-23T16:34:53.306Z,25.22
2023-05-23T16:37:53.031Z,25.17
2023-05-23T16:40:28.805Z,25.14
2023-05-23T16:43:15.162Z,25.09
2023-05-23T16:45:43.968Z,25.00
2023-05-23T16:48:14.170Z,24.91
2023-05-23T16:50:44.979Z,24.83
2023-05-23T16:53:13.350Z,24.76
2023-05-23T16:55:54.055Z,24.70
2023-05-23T16:58:32.663Z,24.63
2023-05-23T17:01:07.982Z,24.57
2023-05-23T17:03:36.644Z,24.47
2023-05-23T17:06:08.332Z,24.36
2023-05-23T17:08:52.386Z,24.23
2023-05-23T17:11:23.101Z,24.06
2023-05-23T17:13:54.676Z,23.92
2023-05-23T17:16:37.903Z,23.81
2023-05-23T17:19:09.596Z,23.71
2023-05-23T17:21:43.559Z,23.61
2023-05-23T17:24:13.613Z,23.53
2023-05-23T17:26:42.229Z,23.45
2023-05-23T17:29:10.851Z,23.37
2023-05-23T17:31:39.424Z,23.28
2023-05-23T17:34:43.138Z,23.19
2023-05-23T17:37:10.075Z,23.07
2023-05-23T17:39:51.867Z,22.98
2023-05-23T17:42:23.058Z,22.86
2023-05-23T17:45:28.828Z,22.77
2023-05-23T17:48:17.364Z,22.62
2023-05-23T17:50:51.992Z,22.50
2023-05-23T18:12:31.328Z,21.74
2023-05-23T18:14:13.698Z,21.60
2023-05-23T18:18:29.491Z,21.47
2023-05-23T18:21:35.908Z,21.32
2023-05-23T18:24:13.128Z,21.22
2023-05-23T18:26:46.001Z,21.14
2023-05-23T18:29:16.925Z,21.06
2023-05-23T18:31:45.819Z,20.97
2023-05-23T18:34:17.217Z,20.89
2023-05-23T18:36:45.754Z,20.80
2023-05-23T18:39:16.873Z,20.71
2023-05-23T18:41:56.961Z,20.62
2023-05-23T18:44:30.134Z,20.54
2023-05-23T18:47:21.479Z,20.45
2023-05-23T18:50:26.011Z,20.34
2023-05-23T18:52:57.014Z,20.24
2023-05-23T18:55:31.569Z,20.14
2023-05-23T18:57:59.816Z,20.06
2023-05-23T19:00:44.679Z,19.99
2023-05-23T19:03:16.585Z,19.91
2023-05-23T19:05:45.108Z,19.83
2023-05-23T19:08:17.186Z,19.76
2023-05-23T19:10:48.829Z,19.69
2023-05-23T19:13:23.349Z,19.62
2023-05-23T19:15:51.696Z,19.56
2023-05-23T19:18:20.687Z,19.51
2023-05-23T19:20:51.600Z,19.46
2023-05-23T19:23:19.635Z,19.40
2023-05-23T19:25:52.303Z,19.38
2023-05-23T19:28:22.201Z,19.39
2023-05-23T19:30:50.390Z,19.42
2023-05-23T19:33:22.240Z,19.53
2023-05-23T19:35:50.214Z,19.67
2023-05-23T19:38:18.878Z,19.71
2023-05-23T19:40:47.692Z,19.75
2023-05-23T19:43:15.771Z,19.83
2023-05-23T19:45:43.783Z,19.95
2023-05-23T19:48:12.276Z,20.06
2023-05-23T19:50:43.207Z,20.14
2023-05-23T19:53:16.481Z,20.18
2023-05-23T19:55:52.945Z,20.19
2023-05-23T19:58:43.358Z,20.21
2023-05-23T20:01:11.680Z,20.20
2023-05-23T20:03:57.703Z,20.18
2023-05-23T20:09:36.813Z,20.05
2023-05-23T20:12:39.553Z,19.95
2023-05-23T20:15:39.357Z,19.84
2023-05-23T20:18:22.374Z,19.75
2023-05-23T20:20:53.893Z,19.68
2023-05-23T20:23:24.337Z,19.62
2023-05-23T20:25:52.931Z,19.57
2023-05-23T20:28:23.297Z,19.51
2023-05-23T20:30:59.683Z,19.45
2023-05-23T20:33:37.408Z,19.39
2023-05-23T20:36:06.788Z,19.31
2023-05-23T20:38:35.328Z,19.23
2023-05-23T20:41:09.066Z,19.16
2023-05-23T20:43:39.862Z,19.09
2023-05-23T20:46:13.894Z,19.02
2023-05-23T20:48:42.311Z,18.95
2023-05-23T20:51:10.288Z,18.90
2023-05-23T20:53:40.556Z,18.85
2023-05-23T20:56:10.363Z,18.79
2023-05-23T20:58:40.244Z,18.74
2023-05-23T21:01:08.468Z,18.69
2023-05-23T21:03:36.765Z,18.66
2023-05-23T21:06:05.155Z,18.62
2023-05-23T21:08:34.632Z,18.60
2023-05-23T21:11:03.281Z,18.57
2023-05-23T21:13:31.370Z,18.55
2023-05-23T21:15:59.629Z,18.54
2023-05-23T21:18:27.558Z,18.52
2023-05-23T21:20:55.509Z,18.49
2023-05-23T21:23:23.855Z,18.48
2023-05-23T21:26:01.954Z,18.46
2023-05-23T21:28:30.372Z,18.45
2023-05-23T21:31:08.846Z,18.45
2023-05-23T21:33:36.858Z,18.48
2023-05-23T21:36:05.198Z,18.51
2023-05-23T21:38:39.923Z,18.54
2023-05-23T21:41:07.889Z,18.59
2023-05-23T21:43:35.704Z,18.63
2023-05-23T21:46:03.719Z,18.65
2023-05-23T21:48:31.586Z,18.65
2023-05-23T21:50:59.652Z,18.66
2023-05-23T21:53:27.635Z,18.66
2023-05-23T21:55:55.592Z,18.68
2023-05-23T21:58:23.555Z,18.68
2023-05-23T22:00:51.368Z,18.66
2023-05-23T22:03:19.415Z,18.64
2023-05-23T22:05:47.332Z,18.61
2023-05-23T22:08:16.234Z,18.59
2023-05-23T22:10:44.393Z,18.57
2023-05-23T22:13:12.438Z,18.54
2023-05-23T22:15:40.638Z,18.53
2023-05-23T22:18:08.509Z,18.52
2023-05-23T22:20:39.343Z,18.52
2023-05-23T22:23:09.405Z,18.52
2023-05-23T22:25:38.468Z,18.53
2023-05-23T22:28:06.503Z,18.54
2023-05-23T22:30:35.534Z,18.54
2023-05-23T22:33:03.502Z,18.54
2023-05-23T22:35:32.125Z,18.52
2023-05-23T22:38:00.087Z,18.50
2023-05-23T22:40:27.962Z,18.48
2023-05-23T22:42:55.833Z,18.45
2023-05-23T22:45:23.861Z,18.37
2023-05-23T22:47:54.315Z,18.24
2023-05-23T22:50:22.805Z,18.12
2023-05-23T22:52:50.795Z,17.98
2023-05-23T22:55:19.253Z,17.84
2023-05-23T22:57:47.193Z,17.72
2023-05-23T23:00:15.256Z,17.64
2023-05-23T23:02:44.617Z,17.57
2023-05-23T23:05:13.178Z,17.49
2023-05-23T23:07:41.334Z,17.44
2023-05-23T23:10:10.048Z,17.42
2023-05-23T23:12:38.301Z,17.38
2023-05-23T23:15:07.659Z,17.34
2023-05-23T23:17:35.677Z,17.35
2023-05-23T23:20:07.928Z,17.37
2023-05-23T23:22:36.624Z,17.37
2023-05-23T23:25:06.797Z,17.37
2023-05-23T23:27:34.754Z,17.37
2023-05-23T23:30:05.303Z,17.37
2023-05-23T23:32:34.543Z,17.40
2023-05-23T23:35:03.056Z,17.46
2023-05-23T23:37:30.884Z,17.56
2023-05-23T23:39:58.986Z,17.68
2023-05-23T23:42:27.177Z,17.75
2023-05-23T23:44:55.195Z,17.70
2023-05-23T23:47:23.301Z,17.54
2023-05-23T23:49:52.392Z,17.36
2023-05-23T23:52:20.669Z,17.19
2023-05-23T23:54:48.661Z,17.05
